Alamo, California
Current Conditions -  °F | °C
As of 11:53 AM on Wednesday 28 Jan 2015 (Local Time) from KCCR Reporting Station
Clear Clear  
Wind Chill: 63°   Ceiling: Unl
Heat Index: 63°   Visibility: 9mi
Dew Point: 46°   Wind: 0mph
Humidity: 54%   Direction: NA
Pressure: 30.24"   Gusts: NA
Location:  37.85°N, 122.03°W
Report Text: KCCR 281953Z 00000KT 9SM CLR 17/08 A3024 RMK AO2 SLP225 T01720078
Loading
Personal Weather Stations






























Interactive Weather Map New forecast layout! Learn more

10-Day Weather Forecast

Advertisements
Track Severe Weather on mobile